sensor_id;sensor_type;location;lat;lon;timestamp;P1;durP1;ratioP1;P2;durP2;ratioP2
4686;SDS011;2357;47.316;-1.348;2022-08-19T00:01:41;3.70;;;1.40;;
4686;SDS011;2357;47.316;-1.348;2022-08-19T00:04:09;6.23;;;1.67;;
4686;SDS011;2357;47.316;-1.348;2022-08-19T00:06:37;7.07;;;1.90;;
4686;SDS011;2357;47.316;-1.348;2022-08-19T00:09:08;11.37;;;1.70;;
4686;SDS011;2357;47.316;-1.348;2022-08-19T00:11:37;2.80;;;1.57;;
4686;SDS011;2357;47.316;-1.348;2022-08-19T00:14:07;4.43;;;1.60;;
4686;SDS011;2357;47.316;-1.348;2022-08-19T00:16:35;6.03;;;1.80;;
4686;SDS011;2357;47.316;-1.348;2022-08-19T00:19:02;6.33;;;2.60;;
4686;SDS011;2357;47.316;-1.348;2022-08-19T00:21:28;4.10;;;1.93;;
4686;SDS011;2357;47.316;-1.348;2022-08-19T00:23:54;4.27;;;1.50;;
4686;SDS011;2357;47.316;-1.348;2022-08-19T00:26:23;6.47;;;1.80;;
4686;SDS011;2357;47.316;-1.348;2022-08-19T00:28:49;3.33;;;1.50;;
4686;SDS011;2357;47.316;-1.348;2022-08-19T00:31:15;4.07;;;1.97;;
4686;SDS011;2357;47.316;-1.348;2022-08-19T00:33:41;2.87;;;1.40;;
4686;SDS011;2357;47.316;-1.348;2022-08-19T00:36:08;3.97;;;1.77;;
4686;SDS011;2357;47.316;-1.348;2022-08-19T00:38:34;5.33;;;1.60;;
4686;SDS011;2357;47.316;-1.348;2022-08-19T00:41:03;2.60;;;1.60;;
4686;SDS011;2357;47.316;-1.348;2022-08-19T00:43:30;5.93;;;1.77;;
4686;SDS011;2357;47.316;-1.348;2022-08-19T00:45:56;2.23;;;2.03;;
4686;SDS011;2357;47.316;-1.348;2022-08-19T00:48:22;4.17;;;2.20;;
4686;SDS011;2357;47.316;-1.348;2022-08-19T00:50:48;4.53;;;1.70;;
4686;SDS011;2357;47.316;-1.348;2022-08-19T00:53:18;2.97;;;1.90;;
4686;SDS011;2357;47.316;-1.348;2022-08-19T00:55:46;3.17;;;1.70;;
4686;SDS011;2357;47.316;-1.348;2022-08-19T00:58:15;8.77;;;2.13;;
4686;SDS011;2357;47.316;-1.348;2022-08-19T01:00:43;4.17;;;1.57;;
4686;SDS011;2357;47.316;-1.348;2022-08-19T01:03:10;2.10;;;1.70;;
4686;SDS011;2357;47.316;-1.348;2022-08-19T01:05:37;6.23;;;2.57;;
4686;SDS011;2357;47.316;-1.348;2022-08-19T01:08:06;4.53;;;2.07;;
4686;SDS011;2357;47.316;-1.348;2022-08-19T01:10:43;3.33;;;1.70;;
4686;SDS011;2357;47.316;-1.348;2022-08-19T01:13:13;2.47;;;2.27;;
4686;SDS011;2357;47.316;-1.348;2022-08-19T01:15:42;2.00;;;1.63;;
4686;SDS011;2357;47.316;-1.348;2022-08-19T01:18:15;10.43;;;2.27;;
4686;SDS011;2357;47.316;-1.348;2022-08-19T01:20:43;3.67;;;1.50;;
4686;SDS011;2357;47.316;-1.348;2022-08-19T01:23:09;3.37;;;1.70;;
4686;SDS011;2357;47.316;-1.348;2022-08-19T01:25:38;2.97;;;1.93;;
4686;SDS011;2357;47.316;-1.348;2022-08-19T01:28:08;4.03;;;1.97;;
4686;SDS011;2357;47.316;-1.348;2022-08-19T01:30:40;1.67;;;1.57;;
4686;SDS011;2357;47.316;-1.348;2022-08-19T01:33:06;7.97;;;1.60;;
4686;SDS011;2357;47.316;-1.348;2022-08-19T01:35:31;1.50;;;1.40;;
4686;SDS011;2357;47.316;-1.348;2022-08-19T01:38:00;1.63;;;1.50;;
4686;SDS011;2357;47.316;-1.348;2022-08-19T01:40:33;1.30;;;1.20;;
4686;SDS011;2357;47.316;-1.348;2022-08-19T01:43:02;9.23;;;3.50;;
4686;SDS011;2357;47.316;-1.348;2022-08-19T01:45:28;2.93;;;2.13;;
4686;SDS011;2357;47.316;-1.348;2022-08-19T01:47:56;4.80;;;1.43;;
4686;SDS011;2357;47.316;-1.348;2022-08-19T01:50:23;4.83;;;1.47;;
4686;SDS011;2357;47.316;-1.348;2022-08-19T01:52:49;1.40;;;1.30;;
4686;SDS011;2357;47.316;-1.348;2022-08-19T01:55:16;4.33;;;1.50;;
4686;SDS011;2357;47.316;-1.348;2022-08-19T01:57:44;1.53;;;1.17;;
4686;SDS011;2357;47.316;-1.348;2022-08-19T02:00:14;2.87;;;1.03;;
4686;SDS011;2357;47.316;-1.348;2022-08-19T02:02:42;0.97;;;0.97;;
4686;SDS011;2357;47.316;-1.348;2022-08-19T02:05:08;1.30;;;1.20;;
4686;SDS011;2357;47.316;-1.348;2022-08-19T02:07:35;4.43;;;1.27;;
4686;SDS011;2357;47.316;-1.348;2022-08-19T02:10:03;5.13;;;1.30;;
4686;SDS011;2357;47.316;-1.348;2022-08-19T02:12:33;1.30;;;1.00;;
4686;SDS011;2357;47.316;-1.348;2022-08-19T02:14:59;1.00;;;1.00;;
4686;SDS011;2357;47.316;-1.348;2022-08-19T02:17:26;1.33;;;1.20;;
4686;SDS011;2357;47.316;-1.348;2022-08-19T02:19:53;1.57;;;1.40;;
4686;SDS011;2357;47.316;-1.348;2022-08-19T02:22:19;0.90;;;0.90;;
4686;SDS011;2357;47.316;-1.348;2022-08-19T02:24:45;2.67;;;1.50;;
4686;SDS011;2357;47.316;-1.348;2022-08-19T02:27:11;1.00;;;0.90;;
4686;SDS011;2357;47.316;-1.348;2022-08-19T02:29:37;1.47;;;1.10;;
4686;SDS011;2357;47.316;-1.348;2022-08-19T02:32:02;0.80;;;0.80;;
4686;SDS011;2357;47.316;-1.348;2022-08-19T02:34:29;2.90;;;1.30;;
4686;SDS011;2357;47.316;-1.348;2022-08-19T02:36:54;3.53;;;1.17;;
4686;SDS011;2357;47.316;-1.348;2022-08-19T02:39:20;2.03;;;0.87;;
4686;SDS011;2357;47.316;-1.348;2022-08-19T02:41:46;4.47;;;1.50;;
4686;SDS011;2357;47.316;-1.348;2022-08-19T02:44:11;1.17;;;1.07;;
4686;SDS011;2357;47.316;-1.348;2022-08-19T02:46:37;1.00;;;0.90;;
4686;SDS011;2357;47.316;-1.348;2022-08-19T02:49:05;1.20;;;1.20;;
4686;SDS011;2357;47.316;-1.348;2022-08-19T02:51:33;0.93;;;0.93;;
4686;SDS011;2357;47.316;-1.348;2022-08-19T02:54:01;1.63;;;0.90;;
4686;SDS011;2357;47.316;-1.348;2022-08-19T02:56:27;3.60;;;1.13;;
4686;SDS011;2357;47.316;-1.348;2022-08-19T02:58:54;1.10;;;1.00;;
4686;SDS011;2357;47.316;-1.348;2022-08-19T03:01:26;9.20;;;1.00;;
4686;SDS011;2357;47.316;-1.348;2022-08-19T03:03:55;2.83;;;0.90;;
4686;SDS011;2357;47.316;-1.348;2022-08-19T03:06:22;0.93;;;0.80;;
4686;SDS011;2357;47.316;-1.348;2022-08-19T03:08:48;1.33;;;0.80;;
4686;SDS011;2357;47.316;-1.348;2022-08-19T03:11:25;2.40;;;1.00;;
4686;SDS011;2357;47.316;-1.348;2022-08-19T03:13:52;0.97;;;0.80;;
4686;SDS011;2357;47.316;-1.348;2022-08-19T03:16:19;1.43;;;1.00;;
4686;SDS011;2357;47.316;-1.348;2022-08-19T03:18:47;0.80;;;0.80;;
4686;SDS011;2357;47.316;-1.348;2022-08-19T03:21:17;1.53;;;0.70;;
4686;SDS011;2357;47.316;-1.348;2022-08-19T03:23:44;1.60;;;1.50;;
4686;SDS011;2357;47.316;-1.348;2022-08-19T03:26:10;1.10;;;1.00;;
4686;SDS011;2357;47.316;-1.348;2022-08-19T03:28:35;2.30;;;1.00;;
4686;SDS011;2357;47.316;-1.348;2022-08-19T03:31:04;2.70;;;1.60;;
4686;SDS011;2357;47.316;-1.348;2022-08-19T03:33:33;1.57;;;1.47;;
4686;SDS011;2357;47.316;-1.348;2022-08-19T03:36:12;2.20;;;2.10;;
4686;SDS011;2357;47.316;-1.348;2022-08-19T03:38:40;2.33;;;2.13;;
4686;SDS011;2357;47.316;-1.348;2022-08-19T03:41:12;2.37;;;2.20;;
4686;SDS011;2357;47.316;-1.348;2022-08-19T03:43:43;2.23;;;2.03;;
4686;SDS011;2357;47.316;-1.348;2022-08-19T03:46:18;3.23;;;2.80;;
4686;SDS011;2357;47.316;-1.348;2022-08-19T03:48:49;3.60;;;3.30;;
4686;SDS011;2357;47.316;-1.348;2022-08-19T03:51:20;4.27;;;3.67;;
4686;SDS011;2357;47.316;-1.348;2022-08-19T03:53:51;4.33;;;3.93;;
4686;SDS011;2357;47.316;-1.348;2022-08-19T03:56:18;4.43;;;4.03;;
4686;SDS011;2357;47.316;-1.348;2022-08-19T03:58:43;4.13;;;3.37;;
4686;SDS011;2357;47.316;-1.348;2022-08-19T04:01:14;7.03;;;4.20;;
4686;SDS011;2357;47.316;-1.348;2022-08-19T04:03:41;5.07;;;4.37;;
4686;SDS011;2357;47.316;-1.348;2022-08-19T04:06:11;5.17;;;4.33;;
4686;SDS011;2357;47.316;-1.348;2022-08-19T04:08:42;4.33;;;4.03;;
4686;SDS011;2357;47.316;-1.348;2022-08-19T04:11:10;5.53;;;4.83;;
4686;SDS011;2357;47.316;-1.348;2022-08-19T04:13:38;12.70;;;5.43;;
4686;SDS011;2357;47.316;-1.348;2022-08-19T04:16:04;6.67;;;5.17;;
4686;SDS011;2357;47.316;-1.348;2022-08-19T04:18:30;6.10;;;5.70;;
4686;SDS011;2357;47.316;-1.348;2022-08-19T04:20:57;6.80;;;5.40;;
4686;SDS011;2357;47.316;-1.348;2022-08-19T04:23:24;6.80;;;6.10;;
4686;SDS011;2357;47.316;-1.348;2022-08-19T04:25:50;6.30;;;5.57;;
4686;SDS011;2357;47.316;-1.348;2022-08-19T04:28:15;7.20;;;6.53;;
4686;SDS011;2357;47.316;-1.348;2022-08-19T04:30:42;9.03;;;6.30;;
4686;SDS011;2357;47.316;-1.348;2022-08-19T04:33:10;5.40;;;5.00;;
4686;SDS011;2357;47.316;-1.348;2022-08-19T04:35:40;6.57;;;5.80;;
4686;SDS011;2357;47.316;-1.348;2022-08-19T04:38:12;5.47;;;5.00;;
4686;SDS011;2357;47.316;-1.348;2022-08-19T04:40:39;7.17;;;5.30;;
4686;SDS011;2357;47.316;-1.348;2022-08-19T04:43:25;7.10;;;4.90;;
4686;SDS011;2357;47.316;-1.348;2022-08-19T04:45:51;5.07;;;4.57;;
4686;SDS011;2357;47.316;-1.348;2022-08-19T04:48:17;3.93;;;3.60;;
4686;SDS011;2357;47.316;-1.348;2022-08-19T04:50:51;4.23;;;3.80;;
4686;SDS011;2357;47.316;-1.348;2022-08-19T04:53:22;3.20;;;3.03;;
4686;SDS011;2357;47.316;-1.348;2022-08-19T04:55:49;3.20;;;3.00;;
4686;SDS011;2357;47.316;-1.348;2022-08-19T04:58:14;3.03;;;2.80;;
4686;SDS011;2357;47.316;-1.348;2022-08-19T05:00:42;4.50;;;3.30;;
4686;SDS011;2357;47.316;-1.348;2022-08-19T05:03:08;2.47;;;2.37;;
4686;SDS011;2357;47.316;-1.348;2022-08-19T05:05:37;2.17;;;2.07;;
4686;SDS011;2357;47.316;-1.348;2022-08-19T05:08:06;2.40;;;2.13;;
4686;SDS011;2357;47.316;-1.348;2022-08-19T05:10:36;2.33;;;2.13;;
4686;SDS011;2357;47.316;-1.348;2022-08-19T05:13:03;2.40;;;2.30;;
4686;SDS011;2357;47.316;-1.348;2022-08-19T05:15:29;2.20;;;2.10;;
4686;SDS011;2357;47.316;-1.348;2022-08-19T05:17:55;2.97;;;2.23;;
4686;SDS011;2357;47.316;-1.348;2022-08-19T05:20:39;2.70;;;2.60;;
4686;SDS011;2357;47.316;-1.348;2022-08-19T05:23:23;4.87;;;2.93;;
4686;SDS011;2357;47.316;-1.348;2022-08-19T05:25:50;2.47;;;2.27;;
4686;SDS011;2357;47.316;-1.348;2022-08-19T05:28:16;3.17;;;2.90;;
4686;SDS011;2357;47.316;-1.348;2022-08-19T05:30:43;3.00;;;2.80;;
4686;SDS011;2357;47.316;-1.348;2022-08-19T05:33:09;2.70;;;2.43;;
4686;SDS011;2357;47.316;-1.348;2022-08-19T05:35:37;4.50;;;3.40;;
4686;SDS011;2357;47.316;-1.348;2022-08-19T05:38:04;3.63;;;3.10;;
4686;SDS011;2357;47.316;-1.348;2022-08-19T05:40:37;2.70;;;2.50;;
4686;SDS011;2357;47.316;-1.348;2022-08-19T05:43:05;3.97;;;3.33;;
4686;SDS011;2357;47.316;-1.348;2022-08-19T05:45:32;3.23;;;2.83;;
4686;SDS011;2357;47.316;-1.348;2022-08-19T05:48:03;2.27;;;2.17;;
4686;SDS011;2357;47.316;-1.348;2022-08-19T05:50:28;2.50;;;2.30;;
4686;SDS011;2357;47.316;-1.348;2022-08-19T05:52:54;1.90;;;1.80;;
4686;SDS011;2357;47.316;-1.348;2022-08-19T05:55:20;1.73;;;1.73;;
4686;SDS011;2357;47.316;-1.348;2022-08-19T05:57:46;4.83;;;1.83;;
4686;SDS011;2357;47.316;-1.348;2022-08-19T06:00:12;2.80;;;2.60;;
4686;SDS011;2357;47.316;-1.348;2022-08-19T06:02:39;3.93;;;3.73;;
4686;SDS011;2357;47.316;-1.348;2022-08-19T06:05:05;9.80;;;4.00;;
4686;SDS011;2357;47.316;-1.348;2022-08-19T06:07:34;7.77;;;4.90;;
4686;SDS011;2357;47.316;-1.348;2022-08-19T06:10:00;4.27;;;3.90;;
4686;SDS011;2357;47.316;-1.348;2022-08-19T06:12:27;5.60;;;5.03;;
4686;SDS011;2357;47.316;-1.348;2022-08-19T06:14:56;5.33;;;4.83;;
4686;SDS011;2357;47.316;-1.348;2022-08-19T06:17:22;7.80;;;5.20;;
4686;SDS011;2357;47.316;-1.348;2022-08-19T06:19:50;7.90;;;5.60;;
4686;SDS011;2357;47.316;-1.348;2022-08-19T06:22:16;7.17;;;5.60;;
4686;SDS011;2357;47.316;-1.348;2022-08-19T06:24:41;5.00;;;4.60;;
4686;SDS011;2357;47.316;-1.348;2022-08-19T06:27:07;5.03;;;4.63;;
4686;SDS011;2357;47.316;-1.348;2022-08-19T06:29:33;7.20;;;5.30;;
4686;SDS011;2357;47.316;-1.348;2022-08-19T06:32:00;5.83;;;4.53;;
4686;SDS011;2357;47.316;-1.348;2022-08-19T06:34:29;6.10;;;4.50;;
4686;SDS011;2357;47.316;-1.348;2022-08-19T06:36:58;5.10;;;4.70;;
4686;SDS011;2357;47.316;-1.348;2022-08-19T06:39:27;5.30;;;4.80;;
4686;SDS011;2357;47.316;-1.348;2022-08-19T06:41:57;8.60;;;5.10;;
4686;SDS011;2357;47.316;-1.348;2022-08-19T06:44:27;5.30;;;4.80;;
4686;SDS011;2357;47.316;-1.348;2022-08-19T06:46:54;4.73;;;4.40;;
4686;SDS011;2357;47.316;-1.348;2022-08-19T06:49:21;6.00;;;5.20;;
4686;SDS011;2357;47.316;-1.348;2022-08-19T06:51:48;12.07;;;5.43;;
4686;SDS011;2357;47.316;-1.348;2022-08-19T06:54:14;5.73;;;4.33;;
4686;SDS011;2357;47.316;-1.348;2022-08-19T06:56:43;5.67;;;4.53;;
4686;SDS011;2357;47.316;-1.348;2022-08-19T06:59:11;4.70;;;4.33;;
4686;SDS011;2357;47.316;-1.348;2022-08-19T07:01:39;4.30;;;4.00;;
4686;SDS011;2357;47.316;-1.348;2022-08-19T07:04:14;5.87;;;5.37;;
4686;SDS011;2357;47.316;-1.348;2022-08-19T07:06:41;5.20;;;4.80;;
4686;SDS011;2357;47.316;-1.348;2022-08-19T07:09:09;6.10;;;5.13;;
4686;SDS011;2357;47.316;-1.348;2022-08-19T07:11:36;5.90;;;5.37;;
4686;SDS011;2357;47.316;-1.348;2022-08-19T07:14:02;7.25;;;4.90;;
4686;SDS011;2357;47.316;-1.348;2022-08-19T07:16:28;10.27;;;5.77;;
4686;SDS011;2357;47.316;-1.348;2022-08-19T07:18:54;14.07;;;5.43;;
4686;SDS011;2357;47.316;-1.348;2022-08-19T07:21:22;4.90;;;4.60;;
4686;SDS011;2357;47.316;-1.348;2022-08-19T07:23:51;4.97;;;4.47;;
4686;SDS011;2357;47.316;-1.348;2022-08-19T07:26:21;4.13;;;3.83;;
4686;SDS011;2357;47.316;-1.348;2022-08-19T07:28:50;6.47;;;4.60;;
4686;SDS011;2357;47.316;-1.348;2022-08-19T07:31:17;5.20;;;4.80;;
4686;SDS011;2357;47.316;-1.348;2022-08-19T07:33:45;4.23;;;3.80;;
4686;SDS011;2357;47.316;-1.348;2022-08-19T07:36:13;4.17;;;3.87;;
4686;SDS011;2357;47.316;-1.348;2022-08-19T07:38:42;3.87;;;3.50;;
4686;SDS011;2357;47.316;-1.348;2022-08-19T07:41:13;3.60;;;3.00;;
4686;SDS011;2357;47.316;-1.348;2022-08-19T07:43:42;5.13;;;2.90;;
4686;SDS011;2357;47.316;-1.348;2022-08-19T07:46:09;3.57;;;2.27;;
4686;SDS011;2357;47.316;-1.348;2022-08-19T07:48:35;6.10;;;3.03;;
4686;SDS011;2357;47.316;-1.348;2022-08-19T07:51:03;2.60;;;2.43;;
4686;SDS011;2357;47.316;-1.348;2022-08-19T07:53:31;2.53;;;2.13;;
4686;SDS011;2357;47.316;-1.348;2022-08-19T07:56:00;8.77;;;2.00;;
4686;SDS011;2357;47.316;-1.348;2022-08-19T07:58:29;3.47;;;2.43;;
4686;SDS011;2357;47.316;-1.348;2022-08-19T08:00:57;8.47;;;1.90;;
4686;SDS011;2357;47.316;-1.348;2022-08-19T08:03:23;6.17;;;2.60;;
4686;SDS011;2357;47.316;-1.348;2022-08-19T08:06:09;3.90;;;2.90;;
4686;SDS011;2357;47.316;-1.348;2022-08-19T08:08:53;2.00;;;1.90;;
4686;SDS011;2357;47.316;-1.348;2022-08-19T08:11:45;1.90;;;1.80;;
4686;SDS011;2357;47.316;-1.348;2022-08-19T08:14:34;2.70;;;2.50;;
4686;SDS011;2357;47.316;-1.348;2022-08-19T08:17:09;3.20;;;2.10;;
4686;SDS011;2357;47.316;-1.348;2022-08-19T08:19:36;3.63;;;1.60;;
4686;SDS011;2357;47.316;-1.348;2022-08-19T08:22:03;3.23;;;2.00;;
4686;SDS011;2357;47.316;-1.348;2022-08-19T08:24:31;2.47;;;1.57;;
4686;SDS011;2357;47.316;-1.348;2022-08-19T08:26:59;2.40;;;1.80;;
4686;SDS011;2357;47.316;-1.348;2022-08-19T08:29:26;7.70;;;1.80;;
4686;SDS011;2357;47.316;-1.348;2022-08-19T08:31:54;2.37;;;1.30;;
4686;SDS011;2357;47.316;-1.348;2022-08-19T08:34:20;2.90;;;1.27;;
4686;SDS011;2357;47.316;-1.348;2022-08-19T08:36:46;4.27;;;1.27;;
4686;SDS011;2357;47.316;-1.348;2022-08-19T08:39:16;9.30;;;1.43;;
4686;SDS011;2357;47.316;-1.348;2022-08-19T08:41:51;9.60;;;1.80;;
4686;SDS011;2357;47.316;-1.348;2022-08-19T08:47:14;4.83;;;1.37;;
4686;SDS011;2357;47.316;-1.348;2022-08-19T08:49:47;1.40;;;1.20;;
4686;SDS011;2357;47.316;-1.348;2022-08-19T08:54:54;4.43;;;1.10;;
4686;SDS011;2357;47.316;-1.348;2022-08-19T08:57:27;2.00;;;1.10;;
4686;SDS011;2357;47.316;-1.348;2022-08-19T09:00:15;3.77;;;1.40;;
4686;SDS011;2357;47.316;-1.348;2022-08-19T09:02:44;2.00;;;1.10;;
4686;SDS011;2357;47.316;-1.348;2022-08-19T09:05:10;1.83;;;0.93;;
4686;SDS011;2357;47.316;-1.348;2022-08-19T09:10:42;6.10;;;1.80;;
4686;SDS011;2357;47.316;-1.348;2022-08-19T09:16:05;2.77;;;0.90;;
4686;SDS011;2357;47.316;-1.348;2022-08-19T09:18:53;0.80;;;0.80;;
4686;SDS011;2357;47.316;-1.348;2022-08-19T09:21:22;1.63;;;0.90;;
4686;SDS011;2357;47.316;-1.348;2022-08-19T09:23:50;4.00;;;1.00;;
4686;SDS011;2357;47.316;-1.348;2022-08-19T09:26:16;2.70;;;1.30;;
4686;SDS011;2357;47.316;-1.348;2022-08-19T09:28:45;3.17;;;1.13;;
4686;SDS011;2357;47.316;-1.348;2022-08-19T09:31:16;2.57;;;1.07;;
4686;SDS011;2357;47.316;-1.348;2022-08-19T09:33:47;1.30;;;1.20;;
4686;SDS011;2357;47.316;-1.348;2022-08-19T09:36:13;2.60;;;1.37;;
4686;SDS011;2357;47.316;-1.348;2022-08-19T09:38:41;2.50;;;1.27;;
4686;SDS011;2357;47.316;-1.348;2022-08-19T09:41:08;2.90;;;1.60;;
4686;SDS011;2357;47.316;-1.348;2022-08-19T09:43:38;3.17;;;1.17;;
4686;SDS011;2357;47.316;-1.348;2022-08-19T09:46:06;0.90;;;0.90;;
4686;SDS011;2357;47.316;-1.348;2022-08-19T09:48:34;0.93;;;0.80;;
4686;SDS011;2357;47.316;-1.348;2022-08-19T09:51:02;1.80;;;0.90;;
4686;SDS011;2357;47.316;-1.348;2022-08-19T09:53:29;2.80;;;1.20;;
4686;SDS011;2357;47.316;-1.348;2022-08-19T09:55:55;2.20;;;0.90;;
4686;SDS011;2357;47.316;-1.348;2022-08-19T09:58:20;1.20;;;1.10;;
4686;SDS011;2357;47.316;-1.348;2022-08-19T10:00:47;8.33;;;1.20;;
4686;SDS011;2357;47.316;-1.348;2022-08-19T10:03:13;1.37;;;1.10;;
4686;SDS011;2357;47.316;-1.348;2022-08-19T10:05:38;2.30;;;1.10;;
4686;SDS011;2357;47.316;-1.348;2022-08-19T10:08:14;1.77;;;1.27;;
4686;SDS011;2357;47.316;-1.348;2022-08-19T10:10:41;3.37;;;1.40;;
4686;SDS011;2357;47.316;-1.348;2022-08-19T10:13:10;1.10;;;1.00;;
4686;SDS011;2357;47.316;-1.348;2022-08-19T10:15:36;0.77;;;0.77;;
4686;SDS011;2357;47.316;-1.348;2022-08-19T10:18:05;1.40;;;1.30;;
4686;SDS011;2357;47.316;-1.348;2022-08-19T10:20:31;1.37;;;0.90;;
4686;SDS011;2357;47.316;-1.348;2022-08-19T10:22:57;0.90;;;0.90;;
4686;SDS011;2357;47.316;-1.348;2022-08-19T10:25:24;0.90;;;0.90;;
4686;SDS011;2357;47.316;-1.348;2022-08-19T10:27:51;0.97;;;0.97;;
4686;SDS011;2357;47.316;-1.348;2022-08-19T10:30:17;4.60;;;1.10;;
4686;SDS011;2357;47.316;-1.348;2022-08-19T10:32:43;1.10;;;1.00;;
4686;SDS011;2357;47.316;-1.348;2022-08-19T10:35:10;2.97;;;0.90;;
4686;SDS011;2357;47.316;-1.348;2022-08-19T10:37:37;3.27;;;0.80;;
4686;SDS011;2357;47.316;-1.348;2022-08-19T10:40:07;1.70;;;1.23;;
4686;SDS011;2357;47.316;-1.348;2022-08-19T10:42:35;1.60;;;0.80;;
4686;SDS011;2357;47.316;-1.348;2022-08-19T10:45:01;4.03;;;1.03;;
4686;SDS011;2357;47.316;-1.348;2022-08-19T10:47:28;1.93;;;0.70;;
4686;SDS011;2357;47.316;-1.348;2022-08-19T10:49:53;0.70;;;0.70;;
4686;SDS011;2357;47.316;-1.348;2022-08-19T10:52:42;2.40;;;0.80;;
4686;SDS011;2357;47.316;-1.348;2022-08-19T10:55:10;1.70;;;0.87;;
4686;SDS011;2357;47.316;-1.348;2022-08-19T10:57:54;0.97;;;0.97;;
4686;SDS011;2357;47.316;-1.348;2022-08-19T11:00:20;2.70;;;0.90;;
4686;SDS011;2357;47.316;-1.348;2022-08-19T11:02:47;3.43;;;0.90;;
4686;SDS011;2357;47.316;-1.348;2022-08-19T11:05:14;5.47;;;0.90;;
4686;SDS011;2357;47.316;-1.348;2022-08-19T11:07:40;5.00;;;1.13;;
4686;SDS011;2357;47.316;-1.348;2022-08-19T11:10:06;7.00;;;1.20;;
4686;SDS011;2357;47.316;-1.348;2022-08-19T11:12:36;0.67;;;0.67;;
4686;SDS011;2357;47.316;-1.348;2022-08-19T11:15:04;0.83;;;0.67;;
4686;SDS011;2357;47.316;-1.348;2022-08-19T11:17:35;2.17;;;0.70;;
4686;SDS011;2357;47.316;-1.348;2022-08-19T11:20:08;1.83;;;0.80;;
4686;SDS011;2357;47.316;-1.348;2022-08-19T11:22:38;1.23;;;0.70;;
4686;SDS011;2357;47.316;-1.348;2022-08-19T11:25:04;3.63;;;1.00;;
4686;SDS011;2357;47.316;-1.348;2022-08-19T11:27:31;1.67;;;0.90;;
4686;SDS011;2357;47.316;-1.348;2022-08-19T11:29:56;1.33;;;0.80;;
4686;SDS011;2357;47.316;-1.348;2022-08-19T11:32:22;2.50;;;0.97;;
4686;SDS011;2357;47.316;-1.348;2022-08-19T11:34:47;0.77;;;0.77;;
4686;SDS011;2357;47.316;-1.348;2022-08-19T11:37:13;0.57;;;0.57;;
4686;SDS011;2357;47.316;-1.348;2022-08-19T11:39:39;0.70;;;0.70;;
4686;SDS011;2357;47.316;-1.348;2022-08-19T11:42:05;1.90;;;0.80;;
4686;SDS011;2357;47.316;-1.348;2022-08-19T11:44:51;0.83;;;0.83;;
4686;SDS011;2357;47.316;-1.348;2022-08-19T11:47:17;0.70;;;0.70;;
4686;SDS011;2357;47.316;-1.348;2022-08-19T11:49:43;1.40;;;0.97;;
4686;SDS011;2357;47.316;-1.348;2022-08-19T11:52:11;0.73;;;0.70;;
4686;SDS011;2357;47.316;-1.348;2022-08-19T11:54:37;1.20;;;0.73;;
4686;SDS011;2357;47.316;-1.348;2022-08-19T11:57:03;2.20;;;0.60;;
4686;SDS011;2357;47.316;-1.348;2022-08-19T11:59:29;0.70;;;0.50;;
4686;SDS011;2357;47.316;-1.348;2022-08-19T12:01:55;0.63;;;0.50;;
4686;SDS011;2357;47.316;-1.348;2022-08-19T12:04:23;1.03;;;0.60;;
4686;SDS011;2357;47.316;-1.348;2022-08-19T12:06:48;2.10;;;0.70;;
4686;SDS011;2357;47.316;-1.348;2022-08-19T12:09:15;0.70;;;0.70;;
4686;SDS011;2357;47.316;-1.348;2022-08-19T12:11:41;0.83;;;0.63;;
4686;SDS011;2357;47.316;-1.348;2022-08-19T12:14:09;0.60;;;0.60;;
4686;SDS011;2357;47.316;-1.348;2022-08-19T12:16:36;0.60;;;0.60;;
4686;SDS011;2357;47.316;-1.348;2022-08-19T12:19:03;0.60;;;0.60;;
4686;SDS011;2357;47.316;-1.348;2022-08-19T12:21:31;1.53;;;0.60;;
4686;SDS011;2357;47.316;-1.348;2022-08-19T12:23:59;2.73;;;0.70;;
4686;SDS011;2357;47.316;-1.348;2022-08-19T12:26:27;2.53;;;0.60;;
4686;SDS011;2357;47.316;-1.348;2022-08-19T12:28:56;0.67;;;0.67;;
4686;SDS011;2357;47.316;-1.348;2022-08-19T12:31:24;0.57;;;0.57;;
4686;SDS011;2357;47.316;-1.348;2022-08-19T12:33:50;1.03;;;0.80;;
4686;SDS011;2357;47.316;-1.348;2022-08-19T12:36:17;0.60;;;0.60;;
4686;SDS011;2357;47.316;-1.348;2022-08-19T12:38:43;2.30;;;0.50;;
4686;SDS011;2357;47.316;-1.348;2022-08-19T12:41:11;3.63;;;0.90;;
4686;SDS011;2357;47.316;-1.348;2022-08-19T12:43:40;1.53;;;0.73;;
4686;SDS011;2357;47.316;-1.348;2022-08-19T12:46:07;1.10;;;0.60;;
4686;SDS011;2357;47.316;-1.348;2022-08-19T12:48:33;0.50;;;0.50;;
4686;SDS011;2357;47.316;-1.348;2022-08-19T12:50:59;0.63;;;0.60;;
4686;SDS011;2357;47.316;-1.348;2022-08-19T12:53:26;2.30;;;0.67;;
4686;SDS011;2357;47.316;-1.348;2022-08-19T12:55:57;2.03;;;0.70;;
4686;SDS011;2357;47.316;-1.348;2022-08-19T12:58:25;0.60;;;0.60;;
4686;SDS011;2357;47.316;-1.348;2022-08-19T13:00:51;0.80;;;0.50;;
4686;SDS011;2357;47.316;-1.348;2022-08-19T13:03:17;1.67;;;0.70;;
4686;SDS011;2357;47.316;-1.348;2022-08-19T13:05:43;9.30;;;1.13;;
4686;SDS011;2357;47.316;-1.348;2022-08-19T13:08:09;0.50;;;0.50;;
4686;SDS011;2357;47.316;-1.348;2022-08-19T13:10:36;0.60;;;0.60;;
4686;SDS011;2357;47.316;-1.348;2022-08-19T13:13:04;1.03;;;0.50;;
4686;SDS011;2357;47.316;-1.348;2022-08-19T13:15:35;0.97;;;0.70;;
4686;SDS011;2357;47.316;-1.348;2022-08-19T13:18:02;0.90;;;0.50;;
4686;SDS011;2357;47.316;-1.348;2022-08-19T13:20:28;0.50;;;0.50;;
4686;SDS011;2357;47.316;-1.348;2022-08-19T13:22:54;1.67;;;0.57;;
4686;SDS011;2357;47.316;-1.348;2022-08-19T13:25:20;0.40;;;0.40;;
4686;SDS011;2357;47.316;-1.348;2022-08-19T13:27:49;1.40;;;0.50;;
4686;SDS011;2357;47.316;-1.348;2022-08-19T13:30:16;0.97;;;0.70;;
4686;SDS011;2357;47.316;-1.348;2022-08-19T13:33:01;0.50;;;0.50;;
4686;SDS011;2357;47.316;-1.348;2022-08-19T13:35:38;0.50;;;0.50;;
4686;SDS011;2357;47.316;-1.348;2022-08-19T13:38:05;1.63;;;0.80;;
4686;SDS011;2357;47.316;-1.348;2022-08-19T13:40:31;3.10;;;1.00;;
4686;SDS011;2357;47.316;-1.348;2022-08-19T13:43:01;0.80;;;0.80;;
4686;SDS011;2357;47.316;-1.348;2022-08-19T13:45:29;2.10;;;0.60;;
4686;SDS011;2357;47.316;-1.348;2022-08-19T13:47:59;0.60;;;0.60;;
4686;SDS011;2357;47.316;-1.348;2022-08-19T13:50:30;0.60;;;0.60;;
4686;SDS011;2357;47.316;-1.348;2022-08-19T13:52:59;3.43;;;1.13;;
4686;SDS011;2357;47.316;-1.348;2022-08-19T13:55:25;1.60;;;0.77;;
4686;SDS011;2357;47.316;-1.348;2022-08-19T13:57:52;1.10;;;0.70;;
4686;SDS011;2357;47.316;-1.348;2022-08-19T14:00:19;0.50;;;0.50;;
4686;SDS011;2357;47.316;-1.348;2022-08-19T14:02:46;0.93;;;0.50;;
4686;SDS011;2357;47.316;-1.348;2022-08-19T14:05:15;1.43;;;0.60;;
4686;SDS011;2357;47.316;-1.348;2022-08-19T14:07:41;0.97;;;0.60;;
4686;SDS011;2357;47.316;-1.348;2022-08-19T14:10:08;1.03;;;0.57;;
4686;SDS011;2357;47.316;-1.348;2022-08-19T14:12:35;2.10;;;0.57;;
4686;SDS011;2357;47.316;-1.348;2022-08-19T14:15:01;4.63;;;0.80;;
4686;SDS011;2357;47.316;-1.348;2022-08-19T14:17:28;1.00;;;0.70;;
4686;SDS011;2357;47.316;-1.348;2022-08-19T14:20:01;0.93;;;0.60;;
4686;SDS011;2357;47.316;-1.348;2022-08-19T14:22:32;7.23;;;1.03;;
4686;SDS011;2357;47.316;-1.348;2022-08-19T14:24:58;4.15;;;0.80;;
4686;SDS011;2357;47.316;-1.348;2022-08-19T14:27:24;0.70;;;0.60;;
4686;SDS011;2357;47.316;-1.348;2022-08-19T14:29:53;1.17;;;0.80;;
4686;SDS011;2357;47.316;-1.348;2022-08-19T14:32:20;1.83;;;0.60;;
4686;SDS011;2357;47.316;-1.348;2022-08-19T14:34:46;1.33;;;0.60;;
4686;SDS011;2357;47.316;-1.348;2022-08-19T14:37:12;1.17;;;0.70;;
4686;SDS011;2357;47.316;-1.348;2022-08-19T14:39:39;1.07;;;0.60;;
4686;SDS011;2357;47.316;-1.348;2022-08-19T14:42:09;4.17;;;0.70;;
4686;SDS011;2357;47.316;-1.348;2022-08-19T14:44:35;1.80;;;0.77;;
4686;SDS011;2357;47.316;-1.348;2022-08-19T14:47:01;1.53;;;0.70;;
4686;SDS011;2357;47.316;-1.348;2022-08-19T14:49:27;1.03;;;0.50;;
4686;SDS011;2357;47.316;-1.348;2022-08-19T14:51:53;0.60;;;0.60;;
4686;SDS011;2357;47.316;-1.348;2022-08-19T14:54:18;4.17;;;1.53;;
4686;SDS011;2357;47.316;-1.348;2022-08-19T14:56:44;2.93;;;1.00;;
4686;SDS011;2357;47.316;-1.348;2022-08-19T14:59:10;2.80;;;0.70;;
4686;SDS011;2357;47.316;-1.348;2022-08-19T15:01:35;1.10;;;0.90;;
4686;SDS011;2357;47.316;-1.348;2022-08-19T15:04:01;5.30;;;0.93;;
4686;SDS011;2357;47.316;-1.348;2022-08-19T15:06:27;1.47;;;0.93;;
4686;SDS011;2357;47.316;-1.348;2022-08-19T15:08:54;0.90;;;0.80;;
4686;SDS011;2357;47.316;-1.348;2022-08-19T15:11:20;4.00;;;0.90;;
4686;SDS011;2357;47.316;-1.348;2022-08-19T15:13:47;2.07;;;0.77;;
4686;SDS011;2357;47.316;-1.348;2022-08-19T15:16:15;2.83;;;1.03;;
4686;SDS011;2357;47.316;-1.348;2022-08-19T15:18:41;1.00;;;0.87;;